createdAt,value
2017-12-17T00:02:11.057Z,23.00
2017-12-17T00:04:38.513Z,22.77
2017-12-17T00:07:05.964Z,19.95
2017-12-17T00:09:33.417Z,23.33
2017-12-17T00:12:00.873Z,29.05
2017-12-17T00:14:28.325Z,27.85
2017-12-17T00:16:55.790Z,19.50
2017-12-17T00:19:23.256Z,26.75
2017-12-17T00:21:50.713Z,22.02
2017-12-17T00:24:18.178Z,29.15
2017-12-17T00:26:45.629Z,24.80
2017-12-17T00:29:13.087Z,30.25
2017-12-17T00:31:40.545Z,28.00
2017-12-17T00:34:07.996Z,22.20
2017-12-17T00:36:35.448Z,23.45
2017-12-17T00:39:03.064Z,24.75
2017-12-17T00:41:30.673Z,21.95
2017-12-17T00:43:58.128Z,21.02
2017-12-17T00:46:25.581Z,19.70
2017-12-17T00:48:53.041Z,23.38
2017-12-17T00:51:20.503Z,22.48
2017-12-17T00:53:48.016Z,22.42
2017-12-17T00:56:15.471Z,18.48
2017-12-17T00:58:42.929Z,20.02
2017-12-17T01:01:10.381Z,19.92
2017-12-17T01:03:37.833Z,22.98
2017-12-17T01:06:05.300Z,19.17
2017-12-17T01:08:32.760Z,23.65
2017-12-17T01:11:00.213Z,22.67
2017-12-17T01:13:27.669Z,19.73
2017-12-17T01:15:55.127Z,20.40
2017-12-17T01:18:22.584Z,22.40
2017-12-17T01:20:50.033Z,19.80
2017-12-17T01:23:17.476Z,18.02
2017-12-17T01:25:44.941Z,18.23
2017-12-17T01:28:12.397Z,20.90
2017-12-17T01:30:39.853Z,25.67
2017-12-17T01:33:07.312Z,22.52
2017-12-17T01:35:34.827Z,23.58
2017-12-17T01:38:02.305Z,23.98
2017-12-17T01:40:29.761Z,22.25
2017-12-17T01:42:57.219Z,24.42
2017-12-17T01:45:24.669Z,21.62
2017-12-17T01:47:52.136Z,23.73
2017-12-17T01:50:20.416Z,29.75
2017-12-17T01:52:47.868Z,27.17
2017-12-17T01:55:15.317Z,30.10
2017-12-17T01:57:42.764Z,24.63
2017-12-17T02:00:10.213Z,24.20
2017-12-17T02:02:37.668Z,25.62
2017-12-17T02:05:05.132Z,28.60
2017-12-17T02:07:32.583Z,26.60
2017-12-17T02:10:00.040Z,28.38
2017-12-17T02:12:27.489Z,25.00
2017-12-17T02:14:54.945Z,26.25
2017-12-17T02:17:22.389Z,29.27
2017-12-17T02:19:49.844Z,33.35
2017-12-17T02:22:17.301Z,24.23
2017-12-17T02:24:44.764Z,26.37
2017-12-17T02:27:12.224Z,28.52
2017-12-17T02:29:39.673Z,24.63
2017-12-17T02:32:07.129Z,28.35
2017-12-17T02:34:34.572Z,28.27
2017-12-17T02:37:02.033Z,24.70
2017-12-17T02:39:29.486Z,26.98
2017-12-17T02:41:56.943Z,31.77
2017-12-17T02:44:24.400Z,26.30
2017-12-17T02:46:51.861Z,29.17
2017-12-17T02:49:19.323Z,26.05
2017-12-17T02:51:46.777Z,28.25
2017-12-17T02:54:14.241Z,25.10
2017-12-17T02:56:41.693Z,27.50
2017-12-17T02:59:09.146Z,23.80
2017-12-17T03:01:36.610Z,28.12
2017-12-17T03:04:04.067Z,26.15
2017-12-17T03:06:31.528Z,25.33
2017-12-17T03:08:58.989Z,25.75
2017-12-17T03:11:26.438Z,25.65
2017-12-17T03:13:53.898Z,25.42
2017-12-17T03:16:21.370Z,26.27
2017-12-17T03:18:48.813Z,28.87
2017-12-17T03:21:16.265Z,27.02
2017-12-17T03:23:43.718Z,28.08
2017-12-17T03:26:11.173Z,28.23
2017-12-17T03:28:38.628Z,25.33
2017-12-17T03:31:06.073Z,26.73
2017-12-17T03:33:33.525Z,30.30
2017-12-17T03:36:00.972Z,25.83
2017-12-17T03:38:28.429Z,25.33
2017-12-17T03:40:55.874Z,24.50
2017-12-17T03:43:23.337Z,26.15
2017-12-17T03:45:50.793Z,30.70
2017-12-17T03:48:18.252Z,30.40
2017-12-17T03:50:45.712Z,25.20
2017-12-17T03:53:13.156Z,23.98
2017-12-17T03:55:40.605Z,25.33
2017-12-17T03:58:08.057Z,31.02
2017-12-17T04:00:35.522Z,34.63
2017-12-17T04:03:02.976Z,26.12
2017-12-17T04:05:30.444Z,29.30
2017-12-17T04:07:57.900Z,27.60
2017-12-17T04:10:25.352Z,28.73
2017-12-17T04:12:52.806Z,35.10
2017-12-17T04:15:20.270Z,30.75
2017-12-17T04:17:47.753Z,27.85
2017-12-17T04:20:15.201Z,32.15
2017-12-17T04:22:42.661Z,34.28
2017-12-17T04:25:10.109Z,36.53
2017-12-17T04:27:37.564Z,25.17
2017-12-17T04:30:05.024Z,34.78
2017-12-17T04:32:32.473Z,26.23
2017-12-17T04:34:59.929Z,31.75
2017-12-17T04:37:27.380Z,41.97
2017-12-17T04:39:54.826Z,27.37
2017-12-17T04:42:22.285Z,29.10
2017-12-17T04:44:49.741Z,30.95
2017-12-17T04:47:17.188Z,35.20
2017-12-17T04:49:44.639Z,31.75
2017-12-17T04:52:12.921Z,28.62
2017-12-17T04:54:40.377Z,35.30
2017-12-17T04:57:07.829Z,30.73
2017-12-17T04:59:35.281Z,31.20
2017-12-17T05:02:02.725Z,29.55
2017-12-17T05:04:30.184Z,29.33
2017-12-17T05:06:57.632Z,31.77
2017-12-17T05:09:25.097Z,32.40
2017-12-17T05:11:52.565Z,26.60
2017-12-17T05:14:20.022Z,32.65
2017-12-17T05:16:47.482Z,24.58
2017-12-17T05:19:14.941Z,34.00
2017-12-17T05:21:42.401Z,27.60
2017-12-17T05:24:09.840Z,23.98
2017-12-17T05:26:37.289Z,31.83
2017-12-17T05:29:04.753Z,24.77
2017-12-17T05:31:32.205Z,31.42
2017-12-17T05:33:59.654Z,29.27
2017-12-17T05:36:27.113Z,32.38
2017-12-17T05:38:54.576Z,29.23
2017-12-17T05:41:22.036Z,29.37
2017-12-17T05:43:49.486Z,21.35
2017-12-17T05:46:16.940Z,23.75
2017-12-17T05:48:44.401Z,26.33
2017-12-17T05:51:11.851Z,30.05
2017-12-17T05:53:39.306Z,25.58
2017-12-17T05:56:06.761Z,23.08
2017-12-17T05:58:34.217Z,22.42
2017-12-17T06:01:01.672Z,30.85
2017-12-17T06:03:29.121Z,22.27
2017-12-17T06:05:56.572Z,26.02
2017-12-17T06:08:24.016Z,27.27
2017-12-17T06:10:51.465Z,29.08
2017-12-17T06:13:18.916Z,25.65
2017-12-17T06:15:46.375Z,25.92
2017-12-17T06:18:13.827Z,26.65
2017-12-17T06:20:41.273Z,29.92
2017-12-17T06:23:08.721Z,33.08
2017-12-17T06:25:36.165Z,27.55
2017-12-17T06:28:03.678Z,28.25
2017-12-17T06:30:31.088Z,32.80
2017-12-17T06:32:58.542Z,24.90
2017-12-17T06:35:25.993Z,31.98
2017-12-17T06:37:53.436Z,29.55
2017-12-17T06:40:20.883Z,27.27
2017-12-17T06:42:48.346Z,26.67
2017-12-17T06:45:15.797Z,23.83
2017-12-17T06:47:43.246Z,23.77
2017-12-17T06:50:10.704Z,23.58
2017-12-17T06:52:38.161Z,29.92
2017-12-17T06:55:05.616Z,27.00
2017-12-17T06:57:33.080Z,26.83
2017-12-17T07:00:00.587Z,30.77
2017-12-17T07:02:28.033Z,28.87
2017-12-17T07:04:55.476Z,22.87
2017-12-17T07:07:22.920Z,27.30
2017-12-17T07:09:50.373Z,28.92
2017-12-17T07:12:17.845Z,20.33
2017-12-17T07:14:45.307Z,25.65
2017-12-17T07:17:12.775Z,21.27
2017-12-17T07:19:40.228Z,30.62
2017-12-17T07:22:07.681Z,24.42
2017-12-17T07:24:35.137Z,23.73
2017-12-17T07:27:02.585Z,23.05
2017-12-17T07:29:30.033Z,25.00
2017-12-17T07:31:57.485Z,25.55
2017-12-17T07:34:24.942Z,26.33
2017-12-17T07:36:52.401Z,25.33
2017-12-17T07:39:19.853Z,24.50
2017-12-17T07:41:47.300Z,22.48
2017-12-17T07:44:14.751Z,40.55
2017-12-17T07:46:42.197Z,16.60
2017-12-17T07:49:09.657Z,23.40
2017-12-17T07:51:37.113Z,19.95
2017-12-17T07:54:04.589Z,18.85
2017-12-17T07:56:32.046Z,23.38
2017-12-17T07:58:59.509Z,22.67
2017-12-17T08:01:26.969Z,18.42
2017-12-17T08:03:54.420Z,19.48
2017-12-17T08:06:21.909Z,28.55
2017-12-17T08:08:49.357Z,26.58
2017-12-17T08:11:16.804Z,19.30
2017-12-17T08:13:44.258Z,19.25
2017-12-17T08:16:11.717Z,18.67
2017-12-17T08:18:39.173Z,29.20
2017-12-17T08:21:06.625Z,23.65
2017-12-17T08:23:34.101Z,21.42
2017-12-17T08:26:01.550Z,31.73
2017-12-17T08:28:29.306Z,28.08
2017-12-17T08:30:56.854Z,22.30
2017-12-17T08:33:24.316Z,24.02
2017-12-17T08:35:51.764Z,23.08
2017-12-17T08:38:19.220Z,31.52
2017-12-17T08:40:46.817Z,20.88
2017-12-17T08:43:14.321Z,22.33
2017-12-17T08:45:41.783Z,20.80
2017-12-17T08:48:09.249Z,18.27
2017-12-17T08:50:36.705Z,21.55
2017-12-17T08:53:04.209Z,20.90
2017-12-17T08:55:31.867Z,21.10
2017-12-17T08:57:59.320Z,29.37
2017-12-17T09:00:26.789Z,21.05
2017-12-17T09:02:54.269Z,16.50
2017-12-17T09:05:21.767Z,16.85
2017-12-17T09:07:49.348Z,17.42
2017-12-17T09:10:17.620Z,20.62
2017-12-17T09:12:45.085Z,16.87
2017-12-17T09:15:12.549Z,22.83
2017-12-17T09:17:40.072Z,14.80
2017-12-17T09:20:07.579Z,16.95
2017-12-17T09:22:35.038Z,13.73
2017-12-17T09:25:02.494Z,19.25
2017-12-17T09:27:29.950Z,16.65
2017-12-17T09:29:57.401Z,16.00
2017-12-17T09:32:24.850Z,20.95
2017-12-17T09:34:52.301Z,10.82
2017-12-17T09:37:19.761Z,12.43
2017-12-17T09:39:47.292Z,12.00
2017-12-17T09:42:14.698Z,12.05
2017-12-17T09:44:42.141Z,12.10
2017-12-17T09:47:09.584Z,11.52
2017-12-17T09:49:37.033Z,12.48
2017-12-17T09:52:04.468Z,8.27
2017-12-17T09:54:31.891Z,11.93
2017-12-17T09:56:59.368Z,10.68
2017-12-17T09:59:26.836Z,11.70
2017-12-17T10:01:54.281Z,9.95
2017-12-17T10:04:21.795Z,7.15
2017-12-17T10:06:49.252Z,14.85
2017-12-17T10:09:16.697Z,10.65
2017-12-17T10:11:44.180Z,9.02
2017-12-17T10:14:11.633Z,10.45
2017-12-17T10:16:39.084Z,9.48
2017-12-17T10:19:06.545Z,14.75
2017-12-17T10:21:34.021Z,14.32
2017-12-17T10:24:01.528Z,8.98
2017-12-17T10:26:28.977Z,15.30
2017-12-17T10:28:56.425Z,22.55
2017-12-17T10:31:23.889Z,15.27
2017-12-17T10:33:51.345Z,11.02
2017-12-17T10:36:18.799Z,11.18
2017-12-17T10:38:46.254Z,8.90
2017-12-17T10:41:13.697Z,7.50
2017-12-17T10:43:41.196Z,10.50
2017-12-17T10:46:08.649Z,14.77
2017-12-17T10:48:36.096Z,10.60
2017-12-17T10:51:03.550Z,10.00
2017-12-17T10:53:31.013Z,17.55
2017-12-17T10:55:58.477Z,9.93
2017-12-17T10:58:25.946Z,8.45
2017-12-17T11:00:53.410Z,11.63
2017-12-17T11:03:20.861Z,12.15
2017-12-17T11:05:48.345Z,9.02
2017-12-17T11:08:15.790Z,12.90
2017-12-17T11:10:43.264Z,12.40
2017-12-17T11:13:10.755Z,11.02
2017-12-17T11:15:38.208Z,7.72
2017-12-17T11:18:05.717Z,9.98
2017-12-17T11:20:33.168Z,20.35
2017-12-17T11:23:00.619Z,7.80
2017-12-17T11:25:28.071Z,19.50
2017-12-17T11:27:55.512Z,8.40
2017-12-17T11:30:22.965Z,6.60
2017-12-17T11:32:50.421Z,11.82
2017-12-17T11:35:17.865Z,9.40
2017-12-17T11:37:45.313Z,12.77
2017-12-17T11:40:12.761Z,8.50
2017-12-17T11:42:40.204Z,13.62
2017-12-17T11:45:07.661Z,13.62
2017-12-17T11:47:35.104Z,14.57
2017-12-17T11:50:02.553Z,13.55
2017-12-17T11:52:30.021Z,8.35
2017-12-17T11:54:57.504Z,11.20
2017-12-17T11:57:24.958Z,9.02
2017-12-17T11:59:52.426Z,10.05
2017-12-17T12:02:19.897Z,17.75
2017-12-17T12:04:47.483Z,7.03
2017-12-17T12:07:14.936Z,11.82
2017-12-17T12:09:42.414Z,9.32
2017-12-17T12:12:09.878Z,19.83
2017-12-17T12:14:37.342Z,18.50
2017-12-17T12:17:04.794Z,13.23
2017-12-17T12:19:32.322Z,11.30
2017-12-17T12:21:59.778Z,16.30
2017-12-17T12:24:27.411Z,12.73
2017-12-17T12:26:55.064Z,10.90
2017-12-17T12:29:22.736Z,13.27
2017-12-17T12:31:50.443Z,25.70
2017-12-17T12:34:18.152Z,13.57
2017-12-17T12:36:47.545Z,17.23
2017-12-17T12:39:15.022Z,13.77
2017-12-17T12:41:42.468Z,14.50
2017-12-17T12:44:09.913Z,11.00
2017-12-17T12:46:37.361Z,9.02
2017-12-17T12:49:04.813Z,13.43
2017-12-17T12:51:32.276Z,15.63
2017-12-17T12:53:59.725Z,14.52
2017-12-17T12:56:27.162Z,10.70
2017-12-17T12:58:54.609Z,14.32
2017-12-17T13:01:22.051Z,13.05
2017-12-17T13:03:49.497Z,10.85
2017-12-17T13:06:16.953Z,16.58
2017-12-17T13:08:44.408Z,11.10
2017-12-17T13:11:11.871Z,17.73
2017-12-17T13:13:39.337Z,14.15
2017-12-17T13:16:06.788Z,20.17
2017-12-17T13:18:34.240Z,11.38
2017-12-17T13:21:01.700Z,16.10
2017-12-17T13:23:29.158Z,17.37
2017-12-17T13:25:56.622Z,14.87
2017-12-17T13:28:24.124Z,13.07
2017-12-17T13:30:51.577Z,15.75
2017-12-17T13:33:19.037Z,17.62
2017-12-17T13:35:46.508Z,22.08
2017-12-17T13:38:13.973Z,18.30
2017-12-17T13:40:41.421Z,21.17
2017-12-17T13:43:08.869Z,14.00
2017-12-17T13:45:36.332Z,23.02
2017-12-17T13:48:03.789Z,18.23
2017-12-17T13:50:31.249Z,18.65
2017-12-17T13:52:58.726Z,17.58
2017-12-17T13:55:26.189Z,21.62
2017-12-17T13:57:53.653Z,16.05
2017-12-17T14:00:21.109Z,19.45
2017-12-17T14:02:48.565Z,10.73
2017-12-17T14:05:16.026Z,13.27
2017-12-17T14:07:43.489Z,12.75
2017-12-17T14:10:10.946Z,12.85
2017-12-17T14:12:38.527Z,13.57
2017-12-17T14:15:06.001Z,20.85
2017-12-17T14:17:33.465Z,14.87
2017-12-17T14:20:00.927Z,12.80
2017-12-17T14:22:28.380Z,15.35
2017-12-17T14:24:55.833Z,18.67
2017-12-17T14:27:23.287Z,11.95
2017-12-17T14:29:50.745Z,14.73
2017-12-17T14:32:18.200Z,17.10
2017-12-17T14:34:45.665Z,21.77
2017-12-17T14:37:13.121Z,13.52
2017-12-17T14:39:40.585Z,20.58
2017-12-17T14:42:08.092Z,17.60
2017-12-17T14:44:35.523Z,13.15
2017-12-17T14:47:02.981Z,13.80
2017-12-17T14:49:30.444Z,12.02
2017-12-17T14:51:57.896Z,15.38
2017-12-17T14:54:25.352Z,15.13
2017-12-17T14:56:52.801Z,12.25
2017-12-17T14:59:20.261Z,11.60
2017-12-17T15:01:47.713Z,18.25
2017-12-17T15:04:15.164Z,15.52
2017-12-17T15:06:42.622Z,15.05
2017-12-17T15:09:10.076Z,16.70
2017-12-17T15:11:37.534Z,13.82
2017-12-17T15:14:04.985Z,17.08
2017-12-17T15:16:32.436Z,9.85
2017-12-17T15:18:59.885Z,8.77
2017-12-17T15:21:27.353Z,13.40
2017-12-17T15:23:54.826Z,8.55
2017-12-17T15:26:22.284Z,12.95
2017-12-17T15:28:49.733Z,16.42
2017-12-17T15:31:17.190Z,13.52
2017-12-17T15:33:44.656Z,10.85
2017-12-17T15:36:12.104Z,13.90
2017-12-17T15:38:39.564Z,12.48
2017-12-17T15:41:07.027Z,18.48
2017-12-17T15:43:34.481Z,15.75
2017-12-17T15:46:01.937Z,17.48
2017-12-17T15:48:29.392Z,20.17
2017-12-17T15:50:56.853Z,11.27
2017-12-17T15:53:24.313Z,11.40
2017-12-17T15:55:51.763Z,13.85
2017-12-17T15:58:19.224Z,17.75
2017-12-17T16:00:46.682Z,10.32
2017-12-17T16:03:14.141Z,12.07
2017-12-17T16:05:41.601Z,17.65
2017-12-17T16:08:09.048Z,19.62
2017-12-17T16:10:36.492Z,12.32
2017-12-17T16:13:03.940Z,14.82
2017-12-17T16:15:31.393Z,13.80
2017-12-17T16:17:58.845Z,11.70
2017-12-17T16:20:26.305Z,14.02
2017-12-17T16:22:53.752Z,12.85
2017-12-17T16:25:21.230Z,11.65
2017-12-17T16:27:48.672Z,12.43
2017-12-17T16:30:16.138Z,18.42
2017-12-17T16:32:43.601Z,17.40
2017-12-17T16:35:11.054Z,18.62
2017-12-17T16:37:38.510Z,13.43
2017-12-17T16:40:05.960Z,20.05
2017-12-17T16:42:33.408Z,24.55
2017-12-17T16:45:00.861Z,23.00
2017-12-17T16:47:28.280Z,19.90
2017-12-17T16:49:55.807Z,23.52
2017-12-17T16:52:23.269Z,26.80
2017-12-17T16:54:50.719Z,24.17
2017-12-17T16:57:18.189Z,21.25
2017-12-17T16:59:45.646Z,19.35
2017-12-17T17:02:13.097Z,21.90
2017-12-17T17:04:40.548Z,25.35
2017-12-17T17:07:08.013Z,24.58
2017-12-17T17:09:35.469Z,23.30
2017-12-17T17:12:02.920Z,25.20
2017-12-17T17:14:30.368Z,24.37
2017-12-17T17:16:57.821Z,26.12
2017-12-17T17:19:25.277Z,22.13
2017-12-17T17:21:52.737Z,25.88
2017-12-17T17:24:20.193Z,24.55
2017-12-17T17:26:47.651Z,21.60
2017-12-17T17:29:15.101Z,27.48
2017-12-17T17:31:42.558Z,22.48
2017-12-17T17:34:10.008Z,27.92
2017-12-17T17:36:37.452Z,27.17
2017-12-17T17:39:04.904Z,24.33
2017-12-17T17:41:32.364Z,32.55
2017-12-17T17:43:59.871Z,29.08
2017-12-17T17:46:27.327Z,29.37
2017-12-17T17:48:54.816Z,30.30
2017-12-17T17:51:22.249Z,28.20
2017-12-17T17:53:49.706Z,23.80
2017-12-17T17:56:17.165Z,31.67
2017-12-17T17:58:44.617Z,34.65
2017-12-17T18:01:12.087Z,35.50
2017-12-17T18:03:39.550Z,31.67
2017-12-17T18:06:07.041Z,30.00
2017-12-17T18:08:34.497Z,30.27
2017-12-17T18:11:01.951Z,25.58
2017-12-17T18:13:29.397Z,36.30
2017-12-17T18:15:56.840Z,30.12
2017-12-17T18:18:24.283Z,31.42
2017-12-17T18:20:51.741Z,32.22
2017-12-17T18:23:19.205Z,39.65
2017-12-17T18:25:46.668Z,35.83
2017-12-17T18:28:14.125Z,29.30
2017-12-17T18:30:41.626Z,41.42
2017-12-17T18:33:09.065Z,30.67
2017-12-17T18:35:36.521Z,33.08
2017-12-17T18:38:03.972Z,31.02
2017-12-17T18:40:31.415Z,34.25
2017-12-17T18:42:58.869Z,36.47
2017-12-17T18:45:26.357Z,30.20
2017-12-17T18:47:53.812Z,32.00
2017-12-17T18:50:21.276Z,30.00
2017-12-17T18:52:48.728Z,33.58
2017-12-17T18:55:16.181Z,28.60
2017-12-17T18:57:43.636Z,23.45
2017-12-17T19:00:11.099Z,24.15
2017-12-17T19:02:38.552Z,23.98
2017-12-17T19:05:06.009Z,27.60
2017-12-17T19:07:33.482Z,21.67
2017-12-17T19:10:00.942Z,17.85
2017-12-17T19:12:28.396Z,25.65
2017-12-17T19:14:55.845Z,22.77
2017-12-17T19:17:23.301Z,16.70
2017-12-17T19:19:50.753Z,23.20
2017-12-17T19:22:18.205Z,18.10
2017-12-17T19:24:45.669Z,22.08
2017-12-17T19:27:13.130Z,17.25
2017-12-17T19:29:40.585Z,16.95
2017-12-17T19:32:08.037Z,16.50
2017-12-17T19:34:35.489Z,21.05
2017-12-17T19:37:02.945Z,18.80
2017-12-17T19:39:30.428Z,16.17
2017-12-17T19:41:57.884Z,18.65
2017-12-17T19:44:25.349Z,15.02
2017-12-17T19:46:52.797Z,21.60
2017-12-17T19:49:20.262Z,16.33
2017-12-17T19:51:47.749Z,17.08
2017-12-17T19:54:15.204Z,16.50
2017-12-17T19:56:42.729Z,12.63
2017-12-17T19:59:10.215Z,28.02
2017-12-17T20:01:37.674Z,14.00
2017-12-17T20:04:05.177Z,13.75
2017-12-17T20:06:32.620Z,18.85
2017-12-17T20:09:00.068Z,15.70
2017-12-17T20:11:27.530Z,17.23
2017-12-17T20:13:55.039Z,17.48
2017-12-17T20:16:22.496Z,13.32
2017-12-17T20:18:49.963Z,14.30
2017-12-17T20:21:17.459Z,12.10
2017-12-17T20:23:44.934Z,10.40
2017-12-17T20:26:12.404Z,15.73
2017-12-17T20:28:39.903Z,16.20
2017-12-17T20:31:07.384Z,14.35
2017-12-17T20:33:34.852Z,13.80
2017-12-17T20:36:02.338Z,17.55
2017-12-17T20:38:29.822Z,11.88
2017-12-17T20:40:57.293Z,11.68
2017-12-17T20:43:24.774Z,19.02
2017-12-17T20:45:52.276Z,14.07
2017-12-17T20:48:19.737Z,15.45
2017-12-17T20:50:47.210Z,11.30
2017-12-17T20:53:14.681Z,12.25
2017-12-17T20:55:42.208Z,9.90
2017-12-17T20:58:09.730Z,13.02
2017-12-17T21:00:37.484Z,14.25
2017-12-17T21:03:05.039Z,10.13
2017-12-17T21:05:32.496Z,18.25
2017-12-17T21:07:59.945Z,11.50
2017-12-17T21:10:27.392Z,16.48
2017-12-17T21:12:54.850Z,16.02
2017-12-17T21:15:22.308Z,14.45
2017-12-17T21:17:49.758Z,14.43
2017-12-17T21:20:17.213Z,21.08
2017-12-17T21:22:44.660Z,15.05
2017-12-17T21:25:12.116Z,11.75
2017-12-17T21:27:39.573Z,15.40
2017-12-17T21:30:07.021Z,16.12
2017-12-17T21:32:34.474Z,11.50
2017-12-17T21:35:02.005Z,11.40
2017-12-17T21:37:29.465Z,14.50
2017-12-17T21:39:56.912Z,14.70
2017-12-17T21:42:24.369Z,13.85
2017-12-17T21:44:51.830Z,13.98
2017-12-17T21:47:19.293Z,13.70
2017-12-17T21:49:46.745Z,20.23
2017-12-17T21:52:14.198Z,22.17
2017-12-17T21:54:41.657Z,26.20
2017-12-17T21:57:09.109Z,15.30
2017-12-17T21:59:36.557Z,15.32
2017-12-17T22:02:04.008Z,19.90
2017-12-17T22:04:31.462Z,21.02
2017-12-17T22:06:58.909Z,22.13
2017-12-17T22:09:26.361Z,17.62
2017-12-17T22:11:53.817Z,19.45
2017-12-17T22:14:21.278Z,24.98
2017-12-17T22:16:48.729Z,29.08
2017-12-17T22:19:16.184Z,18.52
2017-12-17T22:21:43.636Z,22.27
2017-12-17T22:24:11.093Z,29.70
2017-12-17T22:26:38.727Z,19.00
2017-12-17T22:29:06.185Z,27.23
2017-12-17T22:31:34.118Z,26.83
2017-12-17T22:34:01.688Z,19.60
2017-12-17T22:36:29.282Z,26.83
2017-12-17T22:38:56.821Z,28.38
2017-12-17T22:41:24.305Z,31.27
2017-12-17T22:43:51.765Z,26.30
2017-12-17T22:46:19.208Z,28.10
2017-12-17T22:48:46.669Z,26.62
2017-12-17T22:51:14.141Z,32.75
2017-12-17T22:53:41.588Z,28.52
2017-12-17T22:56:09.057Z,34.95
2017-12-17T22:58:36.512Z,42.40
2017-12-17T23:01:03.963Z,26.62
2017-12-17T23:03:31.420Z,28.83
2017-12-17T23:05:58.876Z,35.25
2017-12-17T23:08:26.329Z,35.05
2017-12-17T23:10:53.784Z,35.95
2017-12-17T23:13:21.241Z,37.40
2017-12-17T23:15:48.701Z,31.80
2017-12-17T23:18:16.153Z,38.45
2017-12-17T23:20:43.605Z,36.25
2017-12-17T23:23:11.065Z,33.05
2017-12-17T23:25:38.525Z,28.15
2017-12-17T23:28:06.102Z,36.67
2017-12-17T23:30:37.473Z,22.48
2017-12-17T23:33:04.927Z,38.03
2017-12-17T23:35:32.381Z,26.45
2017-12-17T23:37:59.857Z,25.77
2017-12-17T23:40:27.313Z,29.45
2017-12-17T23:42:54.765Z,27.45
2017-12-17T23:45:22.288Z,32.67
2017-12-17T23:47:49.705Z,30.58
2017-12-17T23:50:17.152Z,26.48
2017-12-17T23:52:44.600Z,32.35
2017-12-17T23:55:12.048Z,22.77
2017-12-17T23:57:39.505Z,24.77
